This is the latest recevied weather packets stored in our database for station/object IZ2XCK-13. If no packets are shown the sender has not sent any weather packets the latest 10 day(s).
| Time | Temp. | Humidity | Pressure | Rain* | Wind** | Luminosity | Snow |
|---|---|---|---|---|---|---|---|
| 1777920308 | 18.33° C | 41% | 1017.6 hPa | - | - | - | - |
| 1777919108 | 17.78° C | 39% | 1017.6 hPa | - | - | - | - |
| 1777917908 | 18.33° C | 38% | 1017.5 hPa | - | - | - | - |
| 1777916707 | 18.33° C | 37% | 1017.3 hPa | - | - | - | - |
| 1777915507 | 18.89° C | 37% | 1017.2 hPa | - | - | - | - |
| 1777914306 | 19.44° C | 38% | 1017.2 hPa | - | - | - | - |
| 1777913106 | 20° C | 37% | 1017.2 hPa | - | - | - | - |
| 1777911906 | 20.56° C | 35% | 1017.3 hPa | - | - | - | - |
| 1777910706 | 20° C | 36% | 1017.3 hPa | - | - | - | - |
| 1777909505 | 20.56° C | 37% | 1017.1 hPa | - | - | - | - |
| 1777908305 | 20.56° C | 36% | 1016.9 hPa | - | - | - | - |
| 1777907105 | 21.11° C | 35% | 1017 hPa | - | - | - | - |
| 1777905904 | 20.56° C | 35% | 1017.5 hPa | - | - | - | - |
| 1777904704 | 20.56° C | 35% | 1017.6 hPa | - | - | - | - |
| 1777903504 | 21.11° C | 34% | 1017.6 hPa | - | - | - | - |
| 1777902303 | 21.11° C | 34% | 1017.5 hPa | - | - | - | - |
| 1777901103 | 21.11° C | 33% | 1017.5 hPa | - | - | - | - |
| 1777899903 | 22.22° C | 32% | 1017.5 hPa | - | - | - | - |
| 1777898702 | 22.22° C | 32% | 1017.6 hPa | - | - | - | - |
| 1777897502 | 22.78° C | 31% | 1017.9 hPa | - | - | - | - |
| 1777896302 | 21.11° C | 35% | 1018.1 hPa | - | - | - | - |
| 1777895101 | 21.67° C | 34% | 1018.1 hPa | - | - | - | - |
| 1777893901 | 21.67° C | 33% | 1018.3 hPa | - | - | - | - |
| 1777892701 | 21.67° C | 35% | 1018.5 hPa | - | - | - | - |
| 1777891500 | 21.11° C | 35% | 1018.7 hPa | - | - | - | - |
* Rain since midnight (hover to see other rain measurements)
** Current wind speed in m/s (hover to see current wind gust speed)